sensor_id;sensor_type;location;lat;lon;timestamp;P1;durP1;ratioP1;P2;durP2;ratioP2
71969;SDS011;59838;52.152;5.436;2023-03-17T00:01:50;2.15;;;1.00;;
71969;SDS011;59838;52.152;5.436;2023-03-17T00:04:20;5.23;;;1.17;;
71969;SDS011;59838;52.152;5.436;2023-03-17T00:06:49;3.05;;;1.30;;
71969;SDS011;59838;52.152;5.436;2023-03-17T00:09:16;2.70;;;1.30;;
71969;SDS011;59838;52.152;5.436;2023-03-17T00:11:44;5.13;;;1.30;;
71969;SDS011;59838;52.152;5.436;2023-03-17T00:14:11;3.28;;;1.63;;
71969;SDS011;59838;52.152;5.436;2023-03-17T00:16:38;5.40;;;1.57;;
71969;SDS011;59838;52.152;5.436;2023-03-17T00:19:14;4.57;;;1.38;;
71969;SDS011;59838;52.152;5.436;2023-03-17T00:21:42;3.15;;;1.35;;
71969;SDS011;59838;52.152;5.436;2023-03-17T00:24:11;4.38;;;1.00;;
71969;SDS011;59838;52.152;5.436;2023-03-17T00:26:40;2.20;;;1.50;;
71969;SDS011;59838;52.152;5.436;2023-03-17T00:29:07;2.73;;;1.33;;
71969;SDS011;59838;52.152;5.436;2023-03-17T00:31:34;3.95;;;1.35;;
71969;SDS011;59838;52.152;5.436;2023-03-17T00:34:01;5.47;;;1.50;;
71969;SDS011;59838;52.152;5.436;2023-03-17T00:36:29;3.80;;;1.52;;
71969;SDS011;59838;52.152;5.436;2023-03-17T00:38:58;3.33;;;1.15;;
71969;SDS011;59838;52.152;5.436;2023-03-17T00:41:25;3.67;;;1.57;;
71969;SDS011;59838;52.152;5.436;2023-03-17T00:43:52;6.28;;;1.67;;
71969;SDS011;59838;52.152;5.436;2023-03-17T00:46:25;2.05;;;1.05;;
71969;SDS011;59838;52.152;5.436;2023-03-17T00:48:54;3.40;;;1.15;;
71969;SDS011;59838;52.152;5.436;2023-03-17T00:51:21;5.95;;;1.23;;
71969;SDS011;59838;52.152;5.436;2023-03-17T00:53:48;4.03;;;1.30;;
71969;SDS011;59838;52.152;5.436;2023-03-17T00:56:16;1.90;;;1.35;;
71969;SDS011;59838;52.152;5.436;2023-03-17T00:58:44;3.15;;;1.33;;
71969;SDS011;59838;52.152;5.436;2023-03-17T01:01:12;3.97;;;1.17;;
71969;SDS011;59838;52.152;5.436;2023-03-17T01:03:39;2.40;;;1.30;;
71969;SDS011;59838;52.152;5.436;2023-03-17T01:06:08;3.40;;;1.57;;
71969;SDS011;59838;52.152;5.436;2023-03-17T01:08:38;3.10;;;1.55;;
71969;SDS011;59838;52.152;5.436;2023-03-17T01:11:05;3.38;;;1.50;;
71969;SDS011;59838;52.152;5.436;2023-03-17T01:13:33;3.45;;;1.83;;
71969;SDS011;59838;52.152;5.436;2023-03-17T01:16:00;2.55;;;1.50;;
71969;SDS011;59838;52.152;5.436;2023-03-17T01:18:26;2.97;;;1.60;;
71969;SDS011;59838;52.152;5.436;2023-03-17T01:20:53;3.92;;;1.25;;
71969;SDS011;59838;52.152;5.436;2023-03-17T01:23:19;2.75;;;1.50;;
71969;SDS011;59838;52.152;5.436;2023-03-17T01:25:47;4.68;;;1.60;;
71969;SDS011;59838;52.152;5.436;2023-03-17T01:28:15;4.68;;;1.52;;
71969;SDS011;59838;52.152;5.436;2023-03-17T01:30:43;2.37;;;1.30;;
71969;SDS011;59838;52.152;5.436;2023-03-17T01:33:11;3.72;;;1.50;;
71969;SDS011;59838;52.152;5.436;2023-03-17T01:35:39;2.65;;;1.73;;
71969;SDS011;59838;52.152;5.436;2023-03-17T01:38:07;2.60;;;1.10;;
71969;SDS011;59838;52.152;5.436;2023-03-17T01:40:34;3.17;;;1.25;;
71969;SDS011;59838;52.152;5.436;2023-03-17T01:48:44;3.00;;;1.10;;
71969;SDS011;59838;52.152;5.436;2023-03-17T01:51:18;2.58;;;1.27;;
71969;SDS011;59838;52.152;5.436;2023-03-17T01:53:50;3.35;;;1.50;;
71969;SDS011;59838;52.152;5.436;2023-03-17T01:56:18;3.27;;;1.20;;
71969;SDS011;59838;52.152;5.436;2023-03-17T01:58:45;2.35;;;1.85;;
71969;SDS011;59838;52.152;5.436;2023-03-17T02:01:14;2.13;;;0.93;;
71969;SDS011;59838;52.152;5.436;2023-03-17T02:03:41;2.03;;;1.20;;
71969;SDS011;59838;52.152;5.436;2023-03-17T02:06:07;4.95;;;0.98;;
71969;SDS011;59838;52.152;5.436;2023-03-17T02:08:34;3.67;;;1.53;;
71969;SDS011;59838;52.152;5.436;2023-03-17T02:11:01;2.90;;;1.45;;
71969;SDS011;59838;52.152;5.436;2023-03-17T02:13:30;2.67;;;1.30;;
71969;SDS011;59838;52.152;5.436;2023-03-17T02:15:58;3.10;;;1.20;;
71969;SDS011;59838;52.152;5.436;2023-03-17T02:18:24;4.93;;;1.38;;
71969;SDS011;59838;52.152;5.436;2023-03-17T02:23:56;3.97;;;1.00;;
71969;SDS011;59838;52.152;5.436;2023-03-17T02:26:25;2.38;;;1.20;;
71969;SDS011;59838;52.152;5.436;2023-03-17T02:28:53;2.88;;;1.00;;
71969;SDS011;59838;52.152;5.436;2023-03-17T02:31:19;3.00;;;1.15;;
71969;SDS011;59838;52.152;5.436;2023-03-17T02:33:46;2.80;;;1.13;;
71969;SDS011;59838;52.152;5.436;2023-03-17T02:36:13;3.00;;;1.25;;
71969;SDS011;59838;52.152;5.436;2023-03-17T02:38:39;2.78;;;1.20;;
71969;SDS011;59838;52.152;5.436;2023-03-17T02:41:06;2.03;;;0.98;;
71969;SDS011;59838;52.152;5.436;2023-03-17T02:43:34;2.17;;;1.15;;
71969;SDS011;59838;52.152;5.436;2023-03-17T02:46:01;4.03;;;1.37;;
71969;SDS011;59838;52.152;5.436;2023-03-17T02:48:28;3.20;;;1.15;;
71969;SDS011;59838;52.152;5.436;2023-03-17T02:50:55;3.65;;;1.27;;
71969;SDS011;59838;52.152;5.436;2023-03-17T02:53:21;1.95;;;1.23;;
71969;SDS011;59838;52.152;5.436;2023-03-17T02:55:47;1.30;;;0.80;;
71969;SDS011;59838;52.152;5.436;2023-03-17T02:58:14;1.80;;;0.97;;
71969;SDS011;59838;52.152;5.436;2023-03-17T03:00:40;3.42;;;1.17;;
71969;SDS011;59838;52.152;5.436;2023-03-17T03:03:07;2.22;;;1.10;;
71969;SDS011;59838;52.152;5.436;2023-03-17T03:05:34;2.22;;;0.77;;
71969;SDS011;59838;52.152;5.436;2023-03-17T03:08:00;3.30;;;1.27;;
71969;SDS011;59838;52.152;5.436;2023-03-17T03:10:28;2.73;;;0.73;;
71969;SDS011;59838;52.152;5.436;2023-03-17T03:12:54;2.17;;;0.85;;
71969;SDS011;59838;52.152;5.436;2023-03-17T03:15:21;3.17;;;0.88;;
71969;SDS011;59838;52.152;5.436;2023-03-17T03:17:49;1.88;;;0.80;;
71969;SDS011;59838;52.152;5.436;2023-03-17T03:20:16;1.45;;;0.60;;
71969;SDS011;59838;52.152;5.436;2023-03-17T03:22:43;3.13;;;0.97;;
71969;SDS011;59838;52.152;5.436;2023-03-17T03:25:09;4.97;;;1.02;;
71969;SDS011;59838;52.152;5.436;2023-03-17T03:27:36;1.65;;;1.00;;
71969;SDS011;59838;52.152;5.436;2023-03-17T03:30:02;1.90;;;0.75;;
71969;SDS011;59838;52.152;5.436;2023-03-17T03:32:30;3.70;;;0.88;;
71969;SDS011;59838;52.152;5.436;2023-03-17T03:34:57;1.73;;;0.70;;
71969;SDS011;59838;52.152;5.436;2023-03-17T03:37:23;1.25;;;0.63;;
71969;SDS011;59838;52.152;5.436;2023-03-17T03:39:50;2.17;;;0.85;;
71969;SDS011;59838;52.152;5.436;2023-03-17T03:42:17;3.00;;;0.70;;
71969;SDS011;59838;52.152;5.436;2023-03-17T03:44:43;1.85;;;0.80;;
71969;SDS011;59838;52.152;5.436;2023-03-17T03:47:10;2.00;;;0.97;;
71969;SDS011;59838;52.152;5.436;2023-03-17T03:49:37;1.77;;;0.75;;
71969;SDS011;59838;52.152;5.436;2023-03-17T03:52:03;2.03;;;0.70;;
71969;SDS011;59838;52.152;5.436;2023-03-17T03:54:30;2.00;;;0.70;;
71969;SDS011;59838;52.152;5.436;2023-03-17T03:56:56;2.10;;;0.95;;
71969;SDS011;59838;52.152;5.436;2023-03-17T03:59:23;2.87;;;1.10;;
71969;SDS011;59838;52.152;5.436;2023-03-17T04:01:49;2.10;;;0.98;;
71969;SDS011;59838;52.152;5.436;2023-03-17T04:04:16;1.63;;;0.90;;
71969;SDS011;59838;52.152;5.436;2023-03-17T04:06:42;1.60;;;0.60;;
71969;SDS011;59838;52.152;5.436;2023-03-17T04:09:09;1.33;;;0.70;;
71969;SDS011;59838;52.152;5.436;2023-03-17T04:11:35;1.73;;;0.70;;
71969;SDS011;59838;52.152;5.436;2023-03-17T04:14:02;1.55;;;0.60;;
71969;SDS011;59838;52.152;5.436;2023-03-17T04:16:29;2.55;;;1.05;;
71969;SDS011;59838;52.152;5.436;2023-03-17T04:18:56;1.98;;;0.63;;
71969;SDS011;59838;52.152;5.436;2023-03-17T04:21:22;3.10;;;0.82;;
71969;SDS011;59838;52.152;5.436;2023-03-17T04:23:49;1.93;;;0.87;;
71969;SDS011;59838;52.152;5.436;2023-03-17T04:26:15;1.75;;;0.70;;
71969;SDS011;59838;52.152;5.436;2023-03-17T04:28:43;2.20;;;1.58;;
71969;SDS011;59838;52.152;5.436;2023-03-17T04:31:10;3.95;;;0.63;;
71969;SDS011;59838;52.152;5.436;2023-03-17T04:33:37;1.85;;;0.70;;
71969;SDS011;59838;52.152;5.436;2023-03-17T04:36:04;2.53;;;0.83;;
71969;SDS011;59838;52.152;5.436;2023-03-17T04:38:32;2.35;;;0.85;;
71969;SDS011;59838;52.152;5.436;2023-03-17T04:40:59;2.35;;;0.93;;
71969;SDS011;59838;52.152;5.436;2023-03-17T04:43:25;1.48;;;0.60;;
71969;SDS011;59838;52.152;5.436;2023-03-17T04:45:52;2.20;;;0.88;;
71969;SDS011;59838;52.152;5.436;2023-03-17T04:48:19;1.13;;;0.50;;
71969;SDS011;59838;52.152;5.436;2023-03-17T04:50:46;3.60;;;0.70;;
71969;SDS011;59838;52.152;5.436;2023-03-17T04:53:13;2.10;;;0.80;;
71969;SDS011;59838;52.152;5.436;2023-03-17T04:55:39;1.65;;;0.80;;
71969;SDS011;59838;52.152;5.436;2023-03-17T04:58:06;1.30;;;0.70;;
71969;SDS011;59838;52.152;5.436;2023-03-17T05:00:35;2.47;;;0.80;;
71969;SDS011;59838;52.152;5.436;2023-03-17T05:03:04;1.70;;;0.70;;
71969;SDS011;59838;52.152;5.436;2023-03-17T05:05:51;2.58;;;0.90;;
71969;SDS011;59838;52.152;5.436;2023-03-17T05:08:18;1.60;;;0.70;;
71969;SDS011;59838;52.152;5.436;2023-03-17T05:10:45;3.15;;;0.88;;
71969;SDS011;59838;52.152;5.436;2023-03-17T05:13:11;2.30;;;0.70;;
71969;SDS011;59838;52.152;5.436;2023-03-17T05:15:38;1.95;;;0.70;;
71969;SDS011;59838;52.152;5.436;2023-03-17T05:18:05;2.80;;;0.70;;
71969;SDS011;59838;52.152;5.436;2023-03-17T05:20:32;1.20;;;0.60;;
71969;SDS011;59838;52.152;5.436;2023-03-17T05:22:58;3.53;;;1.02;;
71969;SDS011;59838;52.152;5.436;2023-03-17T05:25:25;1.70;;;0.70;;
71969;SDS011;59838;52.152;5.436;2023-03-17T05:27:51;1.40;;;0.50;;
71969;SDS011;59838;52.152;5.436;2023-03-17T05:30:18;3.40;;;0.98;;
71969;SDS011;59838;52.152;5.436;2023-03-17T05:32:44;3.47;;;0.80;;
71969;SDS011;59838;52.152;5.436;2023-03-17T05:35:12;2.00;;;0.80;;
71969;SDS011;59838;52.152;5.436;2023-03-17T05:37:38;1.80;;;0.50;;
71969;SDS011;59838;52.152;5.436;2023-03-17T05:40:05;1.77;;;0.75;;
71969;SDS011;59838;52.152;5.436;2023-03-17T05:42:32;1.10;;;0.55;;
71969;SDS011;59838;52.152;5.436;2023-03-17T05:44:58;1.45;;;0.60;;
71969;SDS011;59838;52.152;5.436;2023-03-17T05:47:25;2.28;;;0.88;;
71969;SDS011;59838;52.152;5.436;2023-03-17T05:49:51;1.60;;;0.60;;
71969;SDS011;59838;52.152;5.436;2023-03-17T05:52:18;1.88;;;0.70;;
71969;SDS011;59838;52.152;5.436;2023-03-17T05:54:45;4.15;;;0.77;;
71969;SDS011;59838;52.152;5.436;2023-03-17T05:57:14;2.13;;;0.60;;
71969;SDS011;59838;52.152;5.436;2023-03-17T05:59:41;2.45;;;0.60;;
71969;SDS011;59838;52.152;5.436;2023-03-17T06:02:08;1.63;;;0.60;;
71969;SDS011;59838;52.152;5.436;2023-03-17T06:04:36;1.35;;;0.70;;
71969;SDS011;59838;52.152;5.436;2023-03-17T06:07:03;4.15;;;0.75;;
71969;SDS011;59838;52.152;5.436;2023-03-17T06:09:31;4.28;;;0.93;;
71969;SDS011;59838;52.152;5.436;2023-03-17T06:11:58;4.95;;;0.80;;
71969;SDS011;59838;52.152;5.436;2023-03-17T06:14:25;4.27;;;1.10;;
71969;SDS011;59838;52.152;5.436;2023-03-17T06:16:52;1.98;;;0.73;;
71969;SDS011;59838;52.152;5.436;2023-03-17T06:19:19;2.67;;;1.08;;
71969;SDS011;59838;52.152;5.436;2023-03-17T06:21:45;3.40;;;0.75;;
71969;SDS011;59838;52.152;5.436;2023-03-17T06:24:12;1.80;;;0.80;;
71969;SDS011;59838;52.152;5.436;2023-03-17T06:26:39;5.20;;;1.03;;
71969;SDS011;59838;52.152;5.436;2023-03-17T06:29:06;3.13;;;0.98;;
71969;SDS011;59838;52.152;5.436;2023-03-17T06:31:35;2.47;;;0.82;;
71969;SDS011;59838;52.152;5.436;2023-03-17T06:34:02;2.83;;;0.80;;
71969;SDS011;59838;52.152;5.436;2023-03-17T06:36:29;1.70;;;0.68;;
71969;SDS011;59838;52.152;5.436;2023-03-17T06:38:57;1.63;;;0.70;;
71969;SDS011;59838;52.152;5.436;2023-03-17T06:41:24;5.05;;;0.90;;
71969;SDS011;59838;52.152;5.436;2023-03-17T06:43:51;3.58;;;0.82;;
71969;SDS011;59838;52.152;5.436;2023-03-17T06:46:18;2.10;;;0.80;;
71969;SDS011;59838;52.152;5.436;2023-03-17T06:48:44;4.10;;;1.08;;
71969;SDS011;59838;52.152;5.436;2023-03-17T06:51:10;4.70;;;1.07;;
71969;SDS011;59838;52.152;5.436;2023-03-17T06:53:37;2.05;;;0.85;;
71969;SDS011;59838;52.152;5.436;2023-03-17T06:56:04;2.78;;;1.25;;
71969;SDS011;59838;52.152;5.436;2023-03-17T06:58:30;3.22;;;1.00;;
71969;SDS011;59838;52.152;5.436;2023-03-17T07:00:57;6.25;;;1.17;;
71969;SDS011;59838;52.152;5.436;2023-03-17T07:03:25;8.43;;;1.30;;
71969;SDS011;59838;52.152;5.436;2023-03-17T07:05:52;2.88;;;1.10;;
71969;SDS011;59838;52.152;5.436;2023-03-17T07:08:19;3.38;;;1.40;;
71969;SDS011;59838;52.152;5.436;2023-03-17T07:10:47;3.67;;;1.70;;
71969;SDS011;59838;52.152;5.436;2023-03-17T07:13:14;3.80;;;1.60;;
71969;SDS011;59838;52.152;5.436;2023-03-17T07:15:40;2.03;;;1.13;;
71969;SDS011;59838;52.152;5.436;2023-03-17T07:18:07;2.47;;;1.02;;
71969;SDS011;59838;52.152;5.436;2023-03-17T07:20:34;3.08;;;1.25;;
71969;SDS011;59838;52.152;5.436;2023-03-17T07:23:00;3.58;;;1.42;;
71969;SDS011;59838;52.152;5.436;2023-03-17T07:25:27;3.33;;;1.25;;
71969;SDS011;59838;52.152;5.436;2023-03-17T07:27:54;5.83;;;1.80;;
71969;SDS011;59838;52.152;5.436;2023-03-17T07:30:21;7.13;;;1.25;;
71969;SDS011;59838;52.152;5.436;2023-03-17T07:32:48;3.75;;;0.90;;
71969;SDS011;59838;52.152;5.436;2023-03-17T07:35:15;3.50;;;1.52;;
71969;SDS011;59838;52.152;5.436;2023-03-17T07:37:41;2.75;;;1.52;;
71969;SDS011;59838;52.152;5.436;2023-03-17T07:40:08;3.67;;;1.70;;
71969;SDS011;59838;52.152;5.436;2023-03-17T07:42:36;2.55;;;1.10;;
71969;SDS011;59838;52.152;5.436;2023-03-17T07:45:02;4.40;;;1.05;;
71969;SDS011;59838;52.152;5.436;2023-03-17T07:47:31;2.33;;;1.15;;
71969;SDS011;59838;52.152;5.436;2023-03-17T07:49:57;3.10;;;1.23;;
71969;SDS011;59838;52.152;5.436;2023-03-17T07:52:24;2.20;;;1.00;;
71969;SDS011;59838;52.152;5.436;2023-03-17T07:54:50;2.28;;;1.30;;
71969;SDS011;59838;52.152;5.436;2023-03-17T07:57:17;5.47;;;2.17;;
71969;SDS011;59838;52.152;5.436;2023-03-17T07:59:43;2.00;;;1.08;;
71969;SDS011;59838;52.152;5.436;2023-03-17T08:02:14;3.25;;;1.27;;
71969;SDS011;59838;52.152;5.436;2023-03-17T08:04:42;3.87;;;1.40;;
71969;SDS011;59838;52.152;5.436;2023-03-17T08:07:09;4.32;;;1.40;;
71969;SDS011;59838;52.152;5.436;2023-03-17T08:09:36;2.72;;;0.85;;
71969;SDS011;59838;52.152;5.436;2023-03-17T08:12:03;1.65;;;1.23;;
71969;SDS011;59838;52.152;5.436;2023-03-17T08:14:30;2.72;;;1.25;;
71969;SDS011;59838;52.152;5.436;2023-03-17T08:16:56;3.27;;;1.07;;
71969;SDS011;59838;52.152;5.436;2023-03-17T08:19:23;3.30;;;1.00;;
71969;SDS011;59838;52.152;5.436;2023-03-17T08:21:50;2.70;;;1.33;;
71969;SDS011;59838;52.152;5.436;2023-03-17T08:24:16;4.07;;;1.15;;
71969;SDS011;59838;52.152;5.436;2023-03-17T08:26:46;3.13;;;1.30;;
71969;SDS011;59838;52.152;5.436;2023-03-17T08:29:14;2.40;;;1.17;;
71969;SDS011;59838;52.152;5.436;2023-03-17T08:31:41;2.15;;;1.38;;
71969;SDS011;59838;52.152;5.436;2023-03-17T08:34:10;6.25;;;2.10;;
71969;SDS011;59838;52.152;5.436;2023-03-17T08:36:36;4.10;;;1.25;;
71969;SDS011;59838;52.152;5.436;2023-03-17T08:39:03;2.50;;;1.42;;
71969;SDS011;59838;52.152;5.436;2023-03-17T08:41:30;3.77;;;1.43;;
71969;SDS011;59838;52.152;5.436;2023-03-17T08:43:57;5.88;;;1.60;;
71969;SDS011;59838;52.152;5.436;2023-03-17T08:46:25;2.88;;;1.52;;
71969;SDS011;59838;52.152;5.436;2023-03-17T08:48:55;2.80;;;1.20;;
71969;SDS011;59838;52.152;5.436;2023-03-17T08:51:24;4.57;;;1.42;;
71969;SDS011;59838;52.152;5.436;2023-03-17T08:53:52;4.87;;;1.40;;
71969;SDS011;59838;52.152;5.436;2023-03-17T08:56:21;3.13;;;1.40;;
71969;SDS011;59838;52.152;5.436;2023-03-17T08:58:47;3.05;;;1.58;;
71969;SDS011;59838;52.152;5.436;2023-03-17T09:01:16;4.75;;;1.55;;
71969;SDS011;59838;52.152;5.436;2023-03-17T09:03:44;2.53;;;1.33;;
71969;SDS011;59838;52.152;5.436;2023-03-17T09:06:11;3.30;;;1.20;;
71969;SDS011;59838;52.152;5.436;2023-03-17T09:08:39;3.95;;;1.13;;
71969;SDS011;59838;52.152;5.436;2023-03-17T09:11:10;1.92;;;1.38;;
71969;SDS011;59838;52.152;5.436;2023-03-17T09:13:41;3.38;;;1.60;;
71969;SDS011;59838;52.152;5.436;2023-03-17T09:16:08;3.00;;;1.77;;
71969;SDS011;59838;52.152;5.436;2023-03-17T09:18:35;5.10;;;1.57;;
71969;SDS011;59838;52.152;5.436;2023-03-17T09:21:01;3.67;;;1.60;;
71969;SDS011;59838;52.152;5.436;2023-03-17T09:23:28;2.80;;;1.88;;
71969;SDS011;59838;52.152;5.436;2023-03-17T09:25:55;2.72;;;1.80;;
71969;SDS011;59838;52.152;5.436;2023-03-17T09:28:22;2.55;;;1.63;;
71969;SDS011;59838;52.152;5.436;2023-03-17T09:30:49;3.00;;;1.73;;
71969;SDS011;59838;52.152;5.436;2023-03-17T09:33:16;2.75;;;1.60;;
71969;SDS011;59838;52.152;5.436;2023-03-17T09:35:44;3.78;;;1.40;;
71969;SDS011;59838;52.152;5.436;2023-03-17T09:38:10;3.30;;;1.67;;
71969;SDS011;59838;52.152;5.436;2023-03-17T09:40:44;3.33;;;1.50;;
71969;SDS011;59838;52.152;5.436;2023-03-17T09:43:19;2.70;;;1.50;;
71969;SDS011;59838;52.152;5.436;2023-03-17T09:48:58;3.10;;;2.13;;
71969;SDS011;59838;52.152;5.436;2023-03-17T09:51:29;4.10;;;1.48;;
71969;SDS011;59838;52.152;5.436;2023-03-17T09:54:03;3.72;;;1.73;;
71969;SDS011;59838;52.152;5.436;2023-03-17T09:56:44;3.90;;;1.60;;
71969;SDS011;59838;52.152;5.436;2023-03-17T10:02:15;4.13;;;1.65;;
71969;SDS011;59838;52.152;5.436;2023-03-17T10:04:49;4.25;;;1.67;;
71969;SDS011;59838;52.152;5.436;2023-03-17T10:07:17;9.13;;;2.20;;
71969;SDS011;59838;52.152;5.436;2023-03-17T10:10:02;2.37;;;1.60;;
71969;SDS011;59838;52.152;5.436;2023-03-17T10:15:34;3.08;;;1.85;;
71969;SDS011;59838;52.152;5.436;2023-03-17T10:18:11;3.33;;;1.67;;
71969;SDS011;59838;52.152;5.436;2023-03-17T10:20:43;3.55;;;1.95;;
71969;SDS011;59838;52.152;5.436;2023-03-17T10:23:18;8.37;;;2.00;;
71969;SDS011;59838;52.152;5.436;2023-03-17T10:25:48;3.30;;;1.60;;
71969;SDS011;59838;52.152;5.436;2023-03-17T10:28:26;3.45;;;2.08;;
71969;SDS011;59838;52.152;5.436;2023-03-17T10:31:00;7.13;;;2.10;;
71969;SDS011;59838;52.152;5.436;2023-03-17T10:33:44;3.13;;;2.00;;
71969;SDS011;59838;52.152;5.436;2023-03-17T10:36:14;3.00;;;1.33;;
71969;SDS011;59838;52.152;5.436;2023-03-17T10:38:51;4.25;;;1.73;;
71969;SDS011;59838;52.152;5.436;2023-03-17T10:41:19;4.53;;;1.85;;
71969;SDS011;59838;52.152;5.436;2023-03-17T10:43:47;4.38;;;2.00;;
71969;SDS011;59838;52.152;5.436;2023-03-17T10:46:22;3.90;;;2.05;;
71969;SDS011;59838;52.152;5.436;2023-03-17T10:48:52;6.30;;;1.90;;
71969;SDS011;59838;52.152;5.436;2023-03-17T10:51:25;6.82;;;2.08;;
71969;SDS011;59838;52.152;5.436;2023-03-17T10:54:01;4.13;;;1.90;;
71969;SDS011;59838;52.152;5.436;2023-03-17T10:56:35;2.83;;;1.98;;
71969;SDS011;59838;52.152;5.436;2023-03-17T10:59:06;4.80;;;1.70;;
71969;SDS011;59838;52.152;5.436;2023-03-17T11:01:43;2.90;;;1.53;;
71969;SDS011;59838;52.152;5.436;2023-03-17T11:04:29;4.35;;;2.25;;
71969;SDS011;59838;52.152;5.436;2023-03-17T11:06:58;7.03;;;1.90;;
71969;SDS011;59838;52.152;5.436;2023-03-17T11:09:33;3.00;;;1.73;;
71969;SDS011;59838;52.152;5.436;2023-03-17T11:12:01;10.05;;;2.08;;
71969;SDS011;59838;52.152;5.436;2023-03-17T11:14:34;4.50;;;2.03;;
71969;SDS011;59838;52.152;5.436;2023-03-17T11:17:11;4.78;;;1.52;;
71969;SDS011;59838;52.152;5.436;2023-03-17T11:25:04;3.55;;;1.67;;
71969;SDS011;59838;52.152;5.436;2023-03-17T11:27:35;4.60;;;2.03;;
71969;SDS011;59838;52.152;5.436;2023-03-17T11:33:01;4.10;;;2.03;;
71969;SDS011;59838;52.152;5.436;2023-03-17T11:38:39;5.50;;;1.90;;
71969;SDS011;59838;52.152;5.436;2023-03-17T11:41:32;5.53;;;1.93;;
71969;SDS011;59838;52.152;5.436;2023-03-17T11:49:36;4.30;;;2.20;;
71969;SDS011;59838;52.152;5.436;2023-03-17T11:52:15;3.65;;;1.98;;
71969;SDS011;59838;52.152;5.436;2023-03-17T11:57:16;4.30;;;1.92;;
71969;SDS011;59838;52.152;5.436;2023-03-17T11:59:50;4.68;;;1.77;;
71969;SDS011;59838;52.152;5.436;2023-03-17T12:02:40;3.88;;;1.90;;
71969;SDS011;59838;52.152;5.436;2023-03-17T12:07:46;3.17;;;2.20;;
71969;SDS011;59838;52.152;5.436;2023-03-17T12:13:19;4.68;;;2.58;;
71969;SDS011;59838;52.152;5.436;2023-03-17T12:16:36;3.80;;;2.20;;
71969;SDS011;59838;52.152;5.436;2023-03-17T12:21:34;3.97;;;2.13;;
71969;SDS011;59838;52.152;5.436;2023-03-17T12:24:10;3.88;;;2.10;;
71969;SDS011;59838;52.152;5.436;2023-03-17T12:37:47;5.88;;;2.28;;
71969;SDS011;59838;52.152;5.436;2023-03-17T12:40:16;4.38;;;2.08;;
71969;SDS011;59838;52.152;5.436;2023-03-17T12:43:16;3.08;;;2.15;;
71969;SDS011;59838;52.152;5.436;2023-03-17T12:49:10;9.47;;;3.00;;
71969;SDS011;59838;52.152;5.436;2023-03-17T12:52:04;4.90;;;2.42;;
71969;SDS011;59838;52.152;5.436;2023-03-17T12:54:46;3.75;;;2.13;;
71969;SDS011;59838;52.152;5.436;2023-03-17T12:57:19;6.68;;;2.70;;
71969;SDS011;59838;52.152;5.436;2023-03-17T12:59:48;5.70;;;2.80;;
71969;SDS011;59838;52.152;5.436;2023-03-17T13:02:30;6.20;;;3.20;;
71969;SDS011;59838;52.152;5.436;2023-03-17T13:05:03;4.20;;;2.53;;
71969;SDS011;59838;52.152;5.436;2023-03-17T13:07:35;3.83;;;2.35;;
71969;SDS011;59838;52.152;5.436;2023-03-17T13:10:16;11.48;;;2.90;;
71969;SDS011;59838;52.152;5.436;2023-03-17T13:20:42;6.22;;;2.60;;
71969;SDS011;59838;52.152;5.436;2023-03-17T13:23:41;4.18;;;2.67;;
71969;SDS011;59838;52.152;5.436;2023-03-17T13:26:13;3.67;;;2.70;;
71969;SDS011;59838;52.152;5.436;2023-03-17T13:28:48;4.93;;;2.70;;
71969;SDS011;59838;52.152;5.436;2023-03-17T13:33:52;4.07;;;2.72;;
71969;SDS011;59838;52.152;5.436;2023-03-17T13:36:44;5.50;;;2.95;;
71969;SDS011;59838;52.152;5.436;2023-03-17T13:45:20;3.55;;;2.83;;
71969;SDS011;59838;52.152;5.436;2023-03-17T13:47:52;4.07;;;2.60;;
71969;SDS011;59838;52.152;5.436;2023-03-17T13:50:28;7.03;;;3.22;;
71969;SDS011;59838;52.152;5.436;2023-03-17T13:53:00;3.05;;;2.70;;
71969;SDS011;59838;52.152;5.436;2023-03-17T13:55:31;6.30;;;2.77;;
71969;SDS011;59838;52.152;5.436;2023-03-17T14:00:37;5.82;;;2.97;;
71969;SDS011;59838;52.152;5.436;2023-03-17T14:03:09;4.40;;;3.10;;
71969;SDS011;59838;52.152;5.436;2023-03-17T14:05:46;4.40;;;3.00;;
71969;SDS011;59838;52.152;5.436;2023-03-17T14:08:15;6.77;;;3.17;;
71969;SDS011;59838;52.152;5.436;2023-03-17T14:10:51;4.45;;;2.80;;
71969;SDS011;59838;52.152;5.436;2023-03-17T14:13:21;7.57;;;3.15;;
71969;SDS011;59838;52.152;5.436;2023-03-17T14:16:00;7.13;;;2.65;;
71969;SDS011;59838;52.152;5.436;2023-03-17T14:18:34;7.30;;;3.03;;
71969;SDS011;59838;52.152;5.436;2023-03-17T14:21:04;5.70;;;3.23;;
71969;SDS011;59838;52.152;5.436;2023-03-17T14:23:36;6.63;;;3.35;;
71969;SDS011;59838;52.152;5.436;2023-03-17T14:26:03;6.15;;;3.05;;
71969;SDS011;59838;52.152;5.436;2023-03-17T14:28:32;3.92;;;3.15;;
71969;SDS011;59838;52.152;5.436;2023-03-17T14:31:02;6.35;;;3.17;;
71969;SDS011;59838;52.152;5.436;2023-03-17T14:33:35;4.60;;;2.80;;
71969;SDS011;59838;52.152;5.436;2023-03-17T14:36:05;3.85;;;2.83;;
71969;SDS011;59838;52.152;5.436;2023-03-17T14:38:34;5.32;;;2.90;;
71969;SDS011;59838;52.152;5.436;2023-03-17T14:41:14;3.75;;;2.80;;
71969;SDS011;59838;52.152;5.436;2023-03-17T14:43:49;6.13;;;3.30;;
71969;SDS011;59838;52.152;5.436;2023-03-17T14:46:21;7.83;;;2.50;;
71969;SDS011;59838;52.152;5.436;2023-03-17T14:48:50;5.65;;;2.72;;
71969;SDS011;59838;52.152;5.436;2023-03-17T14:51:25;6.32;;;2.70;;
71969;SDS011;59838;52.152;5.436;2023-03-17T14:53:56;4.88;;;2.90;;
71969;SDS011;59838;52.152;5.436;2023-03-17T14:56:29;6.65;;;2.78;;
71969;SDS011;59838;52.152;5.436;2023-03-17T15:02:22;6.75;;;3.22;;
71969;SDS011;59838;52.152;5.436;2023-03-17T15:07:42;6.45;;;3.22;;
71969;SDS011;59838;52.152;5.436;2023-03-17T15:10:15;4.13;;;3.40;;
71969;SDS011;59838;52.152;5.436;2023-03-17T15:12:46;7.27;;;3.00;;
71969;SDS011;59838;52.152;5.436;2023-03-17T15:15:18;8.80;;;3.30;;
71969;SDS011;59838;52.152;5.436;2023-03-17T15:17:55;5.32;;;3.40;;
71969;SDS011;59838;52.152;5.436;2023-03-17T15:20:24;6.00;;;3.00;;
71969;SDS011;59838;52.152;5.436;2023-03-17T15:28:10;4.40;;;2.97;;
71969;SDS011;59838;52.152;5.436;2023-03-17T15:30:38;4.22;;;2.88;;
71969;SDS011;59838;52.152;5.436;2023-03-17T15:33:20;4.07;;;2.75;;
71969;SDS011;59838;52.152;5.436;2023-03-17T15:35:48;10.55;;;3.42;;
71969;SDS011;59838;52.152;5.436;2023-03-17T15:38:15;6.43;;;2.80;;
71969;SDS011;59838;52.152;5.436;2023-03-17T15:40:42;4.85;;;2.92;;
71969;SDS011;59838;52.152;5.436;2023-03-17T15:43:15;7.85;;;2.95;;
71969;SDS011;59838;52.152;5.436;2023-03-17T15:45:42;7.30;;;3.00;;
71969;SDS011;59838;52.152;5.436;2023-03-17T15:48:20;4.88;;;2.80;;
71969;SDS011;59838;52.152;5.436;2023-03-17T15:50:52;6.20;;;3.00;;
71969;SDS011;59838;52.152;5.436;2023-03-17T15:53:20;4.05;;;2.78;;
71969;SDS011;59838;52.152;5.436;2023-03-17T15:55:47;4.93;;;3.13;;
71969;SDS011;59838;52.152;5.436;2023-03-17T15:58:24;5.78;;;2.90;;
71969;SDS011;59838;52.152;5.436;2023-03-17T16:03:53;4.97;;;2.20;;
71969;SDS011;59838;52.152;5.436;2023-03-17T16:06:20;5.90;;;2.97;;
71969;SDS011;59838;52.152;5.436;2023-03-17T16:08:48;8.02;;;2.88;;
71969;SDS011;59838;52.152;5.436;2023-03-17T16:11:19;5.75;;;2.60;;
71969;SDS011;59838;52.152;5.436;2023-03-17T16:13:53;5.22;;;3.03;;
71969;SDS011;59838;52.152;5.436;2023-03-17T16:19:00;7.40;;;2.80;;
71969;SDS011;59838;52.152;5.436;2023-03-17T16:21:27;7.85;;;3.42;;
71969;SDS011;59838;52.152;5.436;2023-03-17T16:23:54;7.88;;;2.80;;
71969;SDS011;59838;52.152;5.436;2023-03-17T16:26:21;6.03;;;3.00;;
71969;SDS011;59838;52.152;5.436;2023-03-17T16:28:47;6.50;;;2.97;;
71969;SDS011;59838;52.152;5.436;2023-03-17T16:31:24;5.32;;;2.47;;
71969;SDS011;59838;52.152;5.436;2023-03-17T16:33:54;6.05;;;2.72;;
71969;SDS011;59838;52.152;5.436;2023-03-17T16:36:21;5.93;;;2.95;;
71969;SDS011;59838;52.152;5.436;2023-03-17T16:38:49;7.80;;;2.60;;